Terminal Aerodrome Forecast
Issued by NWS

Home | Current Version | Previous Version | Text Only | Print | Product List | Glossary On
Versions: 1 2 3 4 5 6 7 8 9 10 11 12 13 14 15 16 17 18
000
FTUS43 KGRR 221740
TAFBTL
TAF
KBTL 221740Z 2218/2318 34004KT 1 1/2SM BR OVC002
     FM222200 02005KT 2SM BR OVC007
     FM230100 01005KT 1/4SM FG OVC002
     FM231600 01006KT 1/2SM FG OVC004=

USA.gov is the U.S. government's official web portal to all federal, state and local government web resources and services.